sensor_id;sensor_type;location;lat;lon;timestamp;temperature;humidity
28530;DHT22;15737;49.760;6.632;2023-11-21T00:01:57;8.80;99.90
28530;DHT22;15737;49.760;6.632;2023-11-21T00:04:23;8.70;99.90
28530;DHT22;15737;49.760;6.632;2023-11-21T00:06:49;8.80;99.90
28530;DHT22;15737;49.760;6.632;2023-11-21T00:09:14;8.80;99.90
28530;DHT22;15737;49.760;6.632;2023-11-21T00:11:44;8.80;99.90
28530;DHT22;15737;49.760;6.632;2023-11-21T00:14:11;8.90;99.90
28530;DHT22;15737;49.760;6.632;2023-11-21T00:16:36;8.90;99.90
28530;DHT22;15737;49.760;6.632;2023-11-21T00:19:02;8.80;99.90
28530;DHT22;15737;49.760;6.632;2023-11-21T00:21:27;8.80;99.90
28530;DHT22;15737;49.760;6.632;2023-11-21T00:23:53;8.80;99.90
28530;DHT22;15737;49.760;6.632;2023-11-21T00:26:19;8.80;99.90
28530;DHT22;15737;49.760;6.632;2023-11-21T00:28:44;8.80;99.90
28530;DHT22;15737;49.760;6.632;2023-11-21T00:31:10;8.80;99.90
28530;DHT22;15737;49.760;6.632;2023-11-21T00:33:36;8.90;99.90
28530;DHT22;15737;49.760;6.632;2023-11-21T00:36:02;8.90;99.90
28530;DHT22;15737;49.760;6.632;2023-11-21T00:38:27;8.90;99.90
28530;DHT22;15737;49.760;6.632;2023-11-21T00:40:53;8.80;99.90
28530;DHT22;15737;49.760;6.632;2023-11-21T00:43:22;8.90;99.90
28530;DHT22;15737;49.760;6.632;2023-11-21T00:45:48;8.90;99.90
28530;DHT22;15737;49.760;6.632;2023-11-21T00:48:14;8.90;99.90
28530;DHT22;15737;49.760;6.632;2023-11-21T00:50:40;8.90;99.90
28530;DHT22;15737;49.760;6.632;2023-11-21T00:53:05;8.90;99.90
28530;DHT22;15737;49.760;6.632;2023-11-21T00:55:32;8.80;99.90
28530;DHT22;15737;49.760;6.632;2023-11-21T00:57:58;8.80;99.90
28530;DHT22;15737;49.760;6.632;2023-11-21T01:00:25;8.90;99.90
28530;DHT22;15737;49.760;6.632;2023-11-21T01:02:50;8.80;99.90
28530;DHT22;15737;49.760;6.632;2023-11-21T01:05:16;8.80;99.90
28530;DHT22;15737;49.760;6.632;2023-11-21T01:07:41;8.80;99.90
28530;DHT22;15737;49.760;6.632;2023-11-21T01:10:07;8.80;99.90
28530;DHT22;15737;49.760;6.632;2023-11-21T01:12:38;8.80;99.90
28530;DHT22;15737;49.760;6.632;2023-11-21T01:15:05;8.80;99.90
28530;DHT22;15737;49.760;6.632;2023-11-21T01:17:34;8.70;99.90
28530;DHT22;15737;49.760;6.632;2023-11-21T01:20:01;8.70;99.90
28530;DHT22;15737;49.760;6.632;2023-11-21T01:22:26;8.70;99.90
28530;DHT22;15737;49.760;6.632;2023-11-21T01:24:53;8.70;99.90
28530;DHT22;15737;49.760;6.632;2023-11-21T01:27:18;8.80;99.90
28530;DHT22;15737;49.760;6.632;2023-11-21T01:29:44;8.80;99.90
28530;DHT22;15737;49.760;6.632;2023-11-21T01:32:10;8.80;99.90
28530;DHT22;15737;49.760;6.632;2023-11-21T01:34:36;8.70;99.90
28530;DHT22;15737;49.760;6.632;2023-11-21T01:37:01;8.80;99.90
28530;DHT22;15737;49.760;6.632;2023-11-21T01:39:30;8.80;99.90
28530;DHT22;15737;49.760;6.632;2023-11-21T01:41:56;8.80;99.90
28530;DHT22;15737;49.760;6.632;2023-11-21T01:44:24;8.80;99.90
28530;DHT22;15737;49.760;6.632;2023-11-21T01:46:50;8.80;99.90
28530;DHT22;15737;49.760;6.632;2023-11-21T01:51:48;8.70;99.90
28530;DHT22;15737;49.760;6.632;2023-11-21T01:54:17;8.70;99.90
28530;DHT22;15737;49.760;6.632;2023-11-21T01:56:46;8.70;99.90
28530;DHT22;15737;49.760;6.632;2023-11-21T01:59:15;8.60;99.90
28530;DHT22;15737;49.760;6.632;2023-11-21T02:01:43;8.70;99.90
28530;DHT22;15737;49.760;6.632;2023-11-21T02:04:09;8.70;99.90
28530;DHT22;15737;49.760;6.632;2023-11-21T02:06:35;8.70;99.90
28530;DHT22;15737;49.760;6.632;2023-11-21T02:09:00;8.70;99.90
28530;DHT22;15737;49.760;6.632;2023-11-21T02:11:26;8.70;99.90
28530;DHT22;15737;49.760;6.632;2023-11-21T02:13:53;8.80;99.90
28530;DHT22;15737;49.760;6.632;2023-11-21T02:16:19;8.80;99.90
28530;DHT22;15737;49.760;6.632;2023-11-21T02:18:47;8.80;99.90
28530;DHT22;15737;49.760;6.632;2023-11-21T02:23:46;8.80;99.90
28530;DHT22;15737;49.760;6.632;2023-11-21T02:26:12;8.80;99.90
28530;DHT22;15737;49.760;6.632;2023-11-21T02:28:39;8.80;99.90
28530;DHT22;15737;49.760;6.632;2023-11-21T02:31:05;8.70;99.90
28530;DHT22;15737;49.760;6.632;2023-11-21T02:33:33;8.70;99.90
28530;DHT22;15737;49.760;6.632;2023-11-21T02:36:02;8.60;99.90
28530;DHT22;15737;49.760;6.632;2023-11-21T02:38:28;8.60;99.90
28530;DHT22;15737;49.760;6.632;2023-11-21T02:40:53;8.60;99.90
28530;DHT22;15737;49.760;6.632;2023-11-21T02:43:19;8.60;99.90
28530;DHT22;15737;49.760;6.632;2023-11-21T02:45:44;8.60;99.90
28530;DHT22;15737;49.760;6.632;2023-11-21T02:48:10;8.60;99.90
28530;DHT22;15737;49.760;6.632;2023-11-21T02:50:35;8.60;99.90
28530;DHT22;15737;49.760;6.632;2023-11-21T02:53:01;8.60;99.90
28530;DHT22;15737;49.760;6.632;2023-11-21T02:55:30;8.60;99.90
28530;DHT22;15737;49.760;6.632;2023-11-21T02:57:56;8.60;99.90
28530;DHT22;15737;49.760;6.632;2023-11-21T03:00:24;8.60;99.90
28530;DHT22;15737;49.760;6.632;2023-11-21T03:02:51;8.60;99.90
28530;DHT22;15737;49.760;6.632;2023-11-21T03:05:17;8.60;99.90
28530;DHT22;15737;49.760;6.632;2023-11-21T03:07:43;8.70;99.90
28530;DHT22;15737;49.760;6.632;2023-11-21T03:10:09;8.70;99.90
28530;DHT22;15737;49.760;6.632;2023-11-21T03:12:39;8.70;99.90
28530;DHT22;15737;49.760;6.632;2023-11-21T03:15:06;8.60;99.90
28530;DHT22;15737;49.760;6.632;2023-11-21T03:17:32;8.60;99.90
28530;DHT22;15737;49.760;6.632;2023-11-21T03:19:59;8.60;99.90
28530;DHT22;15737;49.760;6.632;2023-11-21T03:22:25;8.70;99.90
28530;DHT22;15737;49.760;6.632;2023-11-21T03:24:51;8.60;99.90
28530;DHT22;15737;49.760;6.632;2023-11-21T03:27:17;8.60;99.90
28530;DHT22;15737;49.760;6.632;2023-11-21T03:29:43;8.60;99.90
28530;DHT22;15737;49.760;6.632;2023-11-21T03:32:09;8.60;99.90
28530;DHT22;15737;49.760;6.632;2023-11-21T03:34:34;8.60;99.90
28530;DHT22;15737;49.760;6.632;2023-11-21T03:37:00;8.70;99.90
28530;DHT22;15737;49.760;6.632;2023-11-21T03:39:25;8.70;99.90
28530;DHT22;15737;49.760;6.632;2023-11-21T03:41:51;8.70;99.90
28530;DHT22;15737;49.760;6.632;2023-11-21T03:44:17;8.70;99.90
28530;DHT22;15737;49.760;6.632;2023-11-21T03:46:43;8.70;99.90
28530;DHT22;15737;49.760;6.632;2023-11-21T03:49:09;8.60;99.90
28530;DHT22;15737;49.760;6.632;2023-11-21T03:51:35;8.60;99.90
28530;DHT22;15737;49.760;6.632;2023-11-21T03:54:00;8.50;99.90
28530;DHT22;15737;49.760;6.632;2023-11-21T03:56:26;8.50;99.90
28530;DHT22;15737;49.760;6.632;2023-11-21T03:58:51;8.50;99.90
28530;DHT22;15737;49.760;6.632;2023-11-21T04:01:23;8.40;99.90
28530;DHT22;15737;49.760;6.632;2023-11-21T04:03:50;8.40;99.90
28530;DHT22;15737;49.760;6.632;2023-11-21T04:06:16;8.40;99.90
28530;DHT22;15737;49.760;6.632;2023-11-21T04:08:45;8.40;99.90
28530;DHT22;15737;49.760;6.632;2023-11-21T04:11:12;8.30;99.90
28530;DHT22;15737;49.760;6.632;2023-11-21T04:13:38;8.40;99.90
28530;DHT22;15737;49.760;6.632;2023-11-21T04:16:05;8.40;99.90
28530;DHT22;15737;49.760;6.632;2023-11-21T04:18:31;8.40;99.90
28530;DHT22;15737;49.760;6.632;2023-11-21T04:20:57;8.40;99.90
28530;DHT22;15737;49.760;6.632;2023-11-21T04:23:22;8.40;99.90
28530;DHT22;15737;49.760;6.632;2023-11-21T04:25:48;8.50;99.90
28530;DHT22;15737;49.760;6.632;2023-11-21T04:28:13;8.60;99.90
28530;DHT22;15737;49.760;6.632;2023-11-21T04:30:39;8.60;99.90
28530;DHT22;15737;49.760;6.632;2023-11-21T04:33:04;8.50;99.90
28530;DHT22;15737;49.760;6.632;2023-11-21T04:35:30;8.50;99.90
28530;DHT22;15737;49.760;6.632;2023-11-21T04:37:56;8.50;99.90
28530;DHT22;15737;49.760;6.632;2023-11-21T04:40:22;8.40;99.90
28530;DHT22;15737;49.760;6.632;2023-11-21T04:42:48;8.40;99.90
28530;DHT22;15737;49.760;6.632;2023-11-21T04:45:13;8.30;99.90
28530;DHT22;15737;49.760;6.632;2023-11-21T04:47:39;8.30;99.90
28530;DHT22;15737;49.760;6.632;2023-11-21T04:50:05;8.30;99.90
28530;DHT22;15737;49.760;6.632;2023-11-21T04:52:31;8.30;99.90
28530;DHT22;15737;49.760;6.632;2023-11-21T04:54:58;8.30;99.90
28530;DHT22;15737;49.760;6.632;2023-11-21T04:57:24;8.30;99.90
28530;DHT22;15737;49.760;6.632;2023-11-21T04:59:49;8.20;99.90
28530;DHT22;15737;49.760;6.632;2023-11-21T05:02:16;8.10;99.90
28530;DHT22;15737;49.760;6.632;2023-11-21T05:04:41;8.10;99.90
28530;DHT22;15737;49.760;6.632;2023-11-21T05:07:08;8.10;99.90
28530;DHT22;15737;49.760;6.632;2023-11-21T05:09:33;8.10;99.90
28530;DHT22;15737;49.760;6.632;2023-11-21T05:11:59;8.20;99.90
28530;DHT22;15737;49.760;6.632;2023-11-21T05:14:25;8.20;99.90
28530;DHT22;15737;49.760;6.632;2023-11-21T05:16:51;8.20;99.90
28530;DHT22;15737;49.760;6.632;2023-11-21T05:19:17;8.20;99.90
28530;DHT22;15737;49.760;6.632;2023-11-21T05:21:43;8.30;99.90
28530;DHT22;15737;49.760;6.632;2023-11-21T05:24:08;8.30;99.90
28530;DHT22;15737;49.760;6.632;2023-11-21T05:29:05;8.30;99.90
28530;DHT22;15737;49.760;6.632;2023-11-21T05:31:30;8.40;99.90
28530;DHT22;15737;49.760;6.632;2023-11-21T05:33:56;8.50;99.90
28530;DHT22;15737;49.760;6.632;2023-11-21T05:36:21;8.50;99.90
28530;DHT22;15737;49.760;6.632;2023-11-21T05:38:47;8.40;99.90
28530;DHT22;15737;49.760;6.632;2023-11-21T05:41:12;8.30;99.90
28530;DHT22;15737;49.760;6.632;2023-11-21T05:43:39;8.20;99.90
28530;DHT22;15737;49.760;6.632;2023-11-21T05:46:05;8.20;99.90
28530;DHT22;15737;49.760;6.632;2023-11-21T05:48:32;8.20;99.90
28530;DHT22;15737;49.760;6.632;2023-11-21T05:50:58;8.20;99.90
28530;DHT22;15737;49.760;6.632;2023-11-21T05:53:24;8.30;99.90
28530;DHT22;15737;49.760;6.632;2023-11-21T05:55:50;8.30;99.90
28530;DHT22;15737;49.760;6.632;2023-11-21T06:00:46;8.40;99.90
28530;DHT22;15737;49.760;6.632;2023-11-21T06:03:11;8.50;99.90
28530;DHT22;15737;49.760;6.632;2023-11-21T06:05:37;8.50;99.90
28530;DHT22;15737;49.760;6.632;2023-11-21T06:08:03;8.50;99.90
28530;DHT22;15737;49.760;6.632;2023-11-21T06:10:29;8.40;99.90
28530;DHT22;15737;49.760;6.632;2023-11-21T06:12:54;8.30;99.90
28530;DHT22;15737;49.760;6.632;2023-11-21T06:15:20;8.30;99.90
28530;DHT22;15737;49.760;6.632;2023-11-21T06:17:48;8.20;99.90
28530;DHT22;15737;49.760;6.632;2023-11-21T06:20:32;8.10;99.90
28530;DHT22;15737;49.760;6.632;2023-11-21T06:22:57;8.10;99.90
28530;DHT22;15737;49.760;6.632;2023-11-21T06:25:23;8.00;99.90
28530;DHT22;15737;49.760;6.632;2023-11-21T06:27:49;8.10;99.90
28530;DHT22;15737;49.760;6.632;2023-11-21T06:32:45;8.10;99.90
28530;DHT22;15737;49.760;6.632;2023-11-21T06:35:11;8.10;99.90
28530;DHT22;15737;49.760;6.632;2023-11-21T06:37:37;8.20;99.90
28530;DHT22;15737;49.760;6.632;2023-11-21T06:40:03;8.20;99.90
28530;DHT22;15737;49.760;6.632;2023-11-21T06:42:30;8.30;99.90
28530;DHT22;15737;49.760;6.632;2023-11-21T06:44:55;8.30;99.90
28530;DHT22;15737;49.760;6.632;2023-11-21T06:47:23;8.30;99.90
28530;DHT22;15737;49.760;6.632;2023-11-21T06:49:53;8.30;99.90
28530;DHT22;15737;49.760;6.632;2023-11-21T06:52:19;8.30;99.90
28530;DHT22;15737;49.760;6.632;2023-11-21T06:54:45;8.30;99.90
28530;DHT22;15737;49.760;6.632;2023-11-21T06:57:12;8.30;99.90
28530;DHT22;15737;49.760;6.632;2023-11-21T06:59:38;8.30;99.90
28530;DHT22;15737;49.760;6.632;2023-11-21T07:02:04;8.30;99.90
28530;DHT22;15737;49.760;6.632;2023-11-21T07:04:36;8.40;99.90
28530;DHT22;15737;49.760;6.632;2023-11-21T07:07:03;8.40;99.90
28530;DHT22;15737;49.760;6.632;2023-11-21T07:09:29;8.40;99.90
28530;DHT22;15737;49.760;6.632;2023-11-21T07:11:55;8.40;99.90
28530;DHT22;15737;49.760;6.632;2023-11-21T07:14:21;8.40;99.90
28530;DHT22;15737;49.760;6.632;2023-11-21T07:16:47;8.40;99.90
28530;DHT22;15737;49.760;6.632;2023-11-21T07:19:13;8.50;99.90
28530;DHT22;15737;49.760;6.632;2023-11-21T07:21:39;8.50;99.90
28530;DHT22;15737;49.760;6.632;2023-11-21T07:24:06;8.60;99.90
28530;DHT22;15737;49.760;6.632;2023-11-21T07:26:32;8.60;99.90
28530;DHT22;15737;49.760;6.632;2023-11-21T07:28:58;8.50;99.90
28530;DHT22;15737;49.760;6.632;2023-11-21T07:31:24;8.50;99.90
28530;DHT22;15737;49.760;6.632;2023-11-21T07:33:50;8.50;99.90
28530;DHT22;15737;49.760;6.632;2023-11-21T07:36:17;8.60;99.90
28530;DHT22;15737;49.760;6.632;2023-11-21T07:38:49;8.70;99.90
28530;DHT22;15737;49.760;6.632;2023-11-21T07:41:15;8.80;99.90
28530;DHT22;15737;49.760;6.632;2023-11-21T07:43:41;8.80;99.90
28530;DHT22;15737;49.760;6.632;2023-11-21T07:46:07;8.70;99.90
28530;DHT22;15737;49.760;6.632;2023-11-21T07:48:34;8.60;99.90
28530;DHT22;15737;49.760;6.632;2023-11-21T07:51:02;8.60;99.90
28530;DHT22;15737;49.760;6.632;2023-11-21T07:53:30;8.60;99.90
28530;DHT22;15737;49.760;6.632;2023-11-21T07:55:57;8.70;99.90
28530;DHT22;15737;49.760;6.632;2023-11-21T07:58:23;8.80;99.90
28530;DHT22;15737;49.760;6.632;2023-11-21T08:00:49;8.90;99.90
28530;DHT22;15737;49.760;6.632;2023-11-21T08:03:15;8.90;99.90
28530;DHT22;15737;49.760;6.632;2023-11-21T08:05:41;8.90;99.90
28530;DHT22;15737;49.760;6.632;2023-11-21T08:08:06;8.80;99.90
28530;DHT22;15737;49.760;6.632;2023-11-21T08:10:33;8.70;99.90
28530;DHT22;15737;49.760;6.632;2023-11-21T08:12:58;8.70;99.90
28530;DHT22;15737;49.760;6.632;2023-11-21T08:15:24;8.80;99.90
28530;DHT22;15737;49.760;6.632;2023-11-21T08:17:49;8.90;99.90
28530;DHT22;15737;49.760;6.632;2023-11-21T08:20:15;9.00;99.90
28530;DHT22;15737;49.760;6.632;2023-11-21T08:22:42;9.10;99.90
28530;DHT22;15737;49.760;6.632;2023-11-21T08:25:08;9.20;99.90
28530;DHT22;15737;49.760;6.632;2023-11-21T08:27:34;9.40;99.90
28530;DHT22;15737;49.760;6.632;2023-11-21T08:30:00;9.50;99.90
28530;DHT22;15737;49.760;6.632;2023-11-21T08:32:26;9.50;99.90
28530;DHT22;15737;49.760;6.632;2023-11-21T08:34:52;9.50;99.90
28530;DHT22;15737;49.760;6.632;2023-11-21T08:37:17;9.60;99.90
28530;DHT22;15737;49.760;6.632;2023-11-21T08:39:47;9.80;99.90
28530;DHT22;15737;49.760;6.632;2023-11-21T08:42:13;9.80;99.90
28530;DHT22;15737;49.760;6.632;2023-11-21T08:44:40;9.80;99.90
28530;DHT22;15737;49.760;6.632;2023-11-21T08:47:06;10.00;99.90
28530;DHT22;15737;49.760;6.632;2023-11-21T08:49:31;10.30;99.90
28530;DHT22;15737;49.760;6.632;2023-11-21T08:51:58;10.50;99.90
28530;DHT22;15737;49.760;6.632;2023-11-21T08:54:25;10.70;99.90
28530;DHT22;15737;49.760;6.632;2023-11-21T08:56:52;10.80;99.90
28530;DHT22;15737;49.760;6.632;2023-11-21T08:59:18;10.70;99.90
28530;DHT22;15737;49.760;6.632;2023-11-21T09:01:45;10.70;99.90
28530;DHT22;15737;49.760;6.632;2023-11-21T09:04:10;10.60;99.90
28530;DHT22;15737;49.760;6.632;2023-11-21T09:06:36;10.60;99.90
28530;DHT22;15737;49.760;6.632;2023-11-21T09:09:01;10.50;99.90
28530;DHT22;15737;49.760;6.632;2023-11-21T09:11:30;10.50;99.90
28530;DHT22;15737;49.760;6.632;2023-11-21T09:13:59;10.50;99.90
28530;DHT22;15737;49.760;6.632;2023-11-21T09:16:24;10.50;99.90
28530;DHT22;15737;49.760;6.632;2023-11-21T09:18:50;10.40;99.90
28530;DHT22;15737;49.760;6.632;2023-11-21T09:21:15;10.30;99.90
28530;DHT22;15737;49.760;6.632;2023-11-21T09:23:44;10.50;99.90
28530;DHT22;15737;49.760;6.632;2023-11-21T09:26:09;10.70;99.90
28530;DHT22;15737;49.760;6.632;2023-11-21T09:28:35;10.90;99.90
28530;DHT22;15737;49.760;6.632;2023-11-21T09:31:03;11.10;99.90
28530;DHT22;15737;49.760;6.632;2023-11-21T09:33:30;11.30;99.90
28530;DHT22;15737;49.760;6.632;2023-11-21T09:35:56;11.50;99.90
28530;DHT22;15737;49.760;6.632;2023-11-21T09:38:23;11.60;99.90
28530;DHT22;15737;49.760;6.632;2023-11-21T09:40:48;11.70;99.90
28530;DHT22;15737;49.760;6.632;2023-11-21T09:43:18;11.80;99.90
28530;DHT22;15737;49.760;6.632;2023-11-21T09:45:54;11.90;99.90
28530;DHT22;15737;49.760;6.632;2023-11-21T09:48:22;12.10;99.90
28530;DHT22;15737;49.760;6.632;2023-11-21T09:50:50;12.30;99.90
28530;DHT22;15737;49.760;6.632;2023-11-21T09:53:20;12.30;99.90
28530;DHT22;15737;49.760;6.632;2023-11-21T09:55:48;12.40;99.90
28530;DHT22;15737;49.760;6.632;2023-11-21T09:58:15;12.40;99.90
28530;DHT22;15737;49.760;6.632;2023-11-21T10:00:43;12.30;99.90
28530;DHT22;15737;49.760;6.632;2023-11-21T10:03:09;12.30;99.90
28530;DHT22;15737;49.760;6.632;2023-11-21T10:05:36;12.40;99.90
28530;DHT22;15737;49.760;6.632;2023-11-21T10:08:20;12.50;99.90
28530;DHT22;15737;49.760;6.632;2023-11-21T10:10:51;12.40;99.90
28530;DHT22;15737;49.760;6.632;2023-11-21T10:13:18;12.50;99.90
28530;DHT22;15737;49.760;6.632;2023-11-21T10:15:50;12.50;99.90
28530;DHT22;15737;49.760;6.632;2023-11-21T10:18:16;12.70;99.90
28530;DHT22;15737;49.760;6.632;2023-11-21T10:20:42;13.10;99.90
28530;DHT22;15737;49.760;6.632;2023-11-21T10:23:08;13.10;99.90
28530;DHT22;15737;49.760;6.632;2023-11-21T10:25:37;13.10;99.90
28530;DHT22;15737;49.760;6.632;2023-11-21T10:28:04;12.90;99.90
28530;DHT22;15737;49.760;6.632;2023-11-21T10:30:34;12.90;99.90
28530;DHT22;15737;49.760;6.632;2023-11-21T10:33:03;13.00;99.90
28530;DHT22;15737;49.760;6.632;2023-11-21T10:35:45;13.20;99.90
28530;DHT22;15737;49.760;6.632;2023-11-21T10:38:13;13.10;99.90
28530;DHT22;15737;49.760;6.632;2023-11-21T10:40:40;12.90;99.90
28530;DHT22;15737;49.760;6.632;2023-11-21T10:43:08;12.70;99.90
28530;DHT22;15737;49.760;6.632;2023-11-21T10:45:35;12.50;99.90
28530;DHT22;15737;49.760;6.632;2023-11-21T10:48:09;12.80;99.90
28530;DHT22;15737;49.760;6.632;2023-11-21T10:50:36;13.20;99.90
28530;DHT22;15737;49.760;6.632;2023-11-21T10:53:10;13.80;99.90
28530;DHT22;15737;49.760;6.632;2023-11-21T10:55:37;14.60;99.90
28530;DHT22;15737;49.760;6.632;2023-11-21T10:58:04;15.30;99.90
28530;DHT22;15737;49.760;6.632;2023-11-21T11:00:32;15.90;99.90
28530;DHT22;15737;49.760;6.632;2023-11-21T11:02:57;16.20;99.90
28530;DHT22;15737;49.760;6.632;2023-11-21T11:05:25;16.50;99.90
28530;DHT22;15737;49.760;6.632;2023-11-21T11:07:59;16.50;99.90
28530;DHT22;15737;49.760;6.632;2023-11-21T11:10:46;16.20;99.90
28530;DHT22;15737;49.760;6.632;2023-11-21T11:13:13;16.00;99.90
28530;DHT22;15737;49.760;6.632;2023-11-21T11:15:40;15.90;99.90
28530;DHT22;15737;49.760;6.632;2023-11-21T11:18:06;16.10;99.90
28530;DHT22;15737;49.760;6.632;2023-11-21T11:20:36;16.30;99.90
28530;DHT22;15737;49.760;6.632;2023-11-21T11:26:31;16.30;99.90
28530;DHT22;15737;49.760;6.632;2023-11-21T11:29:35;15.90;99.90
28530;DHT22;15737;49.760;6.632;2023-11-21T11:34:35;16.40;99.90
28530;DHT22;15737;49.760;6.632;2023-11-21T11:37:04;17.80;99.90
28530;DHT22;15737;49.760;6.632;2023-11-21T11:39:38;19.50;99.90
28530;DHT22;15737;49.760;6.632;2023-11-21T11:42:07;20.20;99.90
28530;DHT22;15737;49.760;6.632;2023-11-21T11:54:59;16.00;99.90
28530;DHT22;15737;49.760;6.632;2023-11-21T11:57:25;16.00;99.90
28530;DHT22;15737;49.760;6.632;2023-11-21T12:02:44;16.80;99.90
28530;DHT22;15737;49.760;6.632;2023-11-21T12:05:17;17.50;99.90
28530;DHT22;15737;49.760;6.632;2023-11-21T12:07:57;18.10;99.90
28530;DHT22;15737;49.760;6.632;2023-11-21T12:10:34;18.20;99.90
28530;DHT22;15737;49.760;6.632;2023-11-21T12:13:07;18.50;99.90
28530;DHT22;15737;49.760;6.632;2023-11-21T12:15:33;19.40;99.90
28530;DHT22;15737;49.760;6.632;2023-11-21T12:17:59;20.40;99.90
28530;DHT22;15737;49.760;6.632;2023-11-21T12:20:26;20.60;99.90
28530;DHT22;15737;49.760;6.632;2023-11-21T12:25:26;21.00;99.90
28530;DHT22;15737;49.760;6.632;2023-11-21T12:27:57;20.10;99.90
28530;DHT22;15737;49.760;6.632;2023-11-21T12:30:25;18.10;99.90
28530;DHT22;15737;49.760;6.632;2023-11-21T12:32:54;17.30;99.90
28530;DHT22;15737;49.760;6.632;2023-11-21T12:35:22;16.70;99.90
28530;DHT22;15737;49.760;6.632;2023-11-21T12:37:49;16.00;99.90
28530;DHT22;15737;49.760;6.632;2023-11-21T12:40:16;15.40;99.90
28530;DHT22;15737;49.760;6.632;2023-11-21T12:42:43;15.10;99.90
28530;DHT22;15737;49.760;6.632;2023-11-21T12:47:45;14.90;99.90
28530;DHT22;15737;49.760;6.632;2023-11-21T12:50:11;15.10;99.90
28530;DHT22;15737;49.760;6.632;2023-11-21T12:52:45;15.00;99.90
28530;DHT22;15737;49.760;6.632;2023-11-21T12:55:21;14.70;99.90
28530;DHT22;15737;49.760;6.632;2023-11-21T12:57:52;14.30;99.90
28530;DHT22;15737;49.760;6.632;2023-11-21T13:00:22;14.00;99.90
28530;DHT22;15737;49.760;6.632;2023-11-21T13:02:57;13.40;99.90
28530;DHT22;15737;49.760;6.632;2023-11-21T13:05:29;12.70;99.90
28530;DHT22;15737;49.760;6.632;2023-11-21T13:07:57;12.40;99.90
28530;DHT22;15737;49.760;6.632;2023-11-21T13:10:27;12.60;99.90
28530;DHT22;15737;49.760;6.632;2023-11-21T13:13:00;12.60;99.90
28530;DHT22;15737;49.760;6.632;2023-11-21T13:15:29;12.90;99.90
28530;DHT22;15737;49.760;6.632;2023-11-21T13:17:57;13.30;99.90
28530;DHT22;15737;49.760;6.632;2023-11-21T13:20:23;13.50;99.90
28530;DHT22;15737;49.760;6.632;2023-11-21T13:22:51;13.70;99.90
28530;DHT22;15737;49.760;6.632;2023-11-21T13:25:23;13.80;99.90
28530;DHT22;15737;49.760;6.632;2023-11-21T13:27:48;13.90;99.90
28530;DHT22;15737;49.760;6.632;2023-11-21T13:30:15;13.90;99.90
28530;DHT22;15737;49.760;6.632;2023-11-21T13:32:45;14.00;99.90
28530;DHT22;15737;49.760;6.632;2023-11-21T13:35:17;13.80;99.90
28530;DHT22;15737;49.760;6.632;2023-11-21T13:37:57;13.70;99.90
28530;DHT22;15737;49.760;6.632;2023-11-21T13:40:26;13.60;99.90
28530;DHT22;15737;49.760;6.632;2023-11-21T13:42:55;13.60;99.90
28530;DHT22;15737;49.760;6.632;2023-11-21T13:45:24;13.80;99.90
28530;DHT22;15737;49.760;6.632;2023-11-21T13:47:53;14.00;99.90
28530;DHT22;15737;49.760;6.632;2023-11-21T13:53:27;14.50;99.90
28530;DHT22;15737;49.760;6.632;2023-11-21T13:55:54;14.70;99.90
28530;DHT22;15737;49.760;6.632;2023-11-21T13:58:21;14.80;99.90
28530;DHT22;15737;49.760;6.632;2023-11-21T14:01:00;14.80;99.90
28530;DHT22;15737;49.760;6.632;2023-11-21T14:03:31;14.70;99.90
28530;DHT22;15737;49.760;6.632;2023-11-21T14:06:09;14.80;99.90
28530;DHT22;15737;49.760;6.632;2023-11-21T14:08:40;14.80;99.90
28530;DHT22;15737;49.760;6.632;2023-11-21T14:11:07;14.90;99.90
28530;DHT22;15737;49.760;6.632;2023-11-21T14:13:32;14.90;99.90
28530;DHT22;15737;49.760;6.632;2023-11-21T14:15:59;14.90;99.90
28530;DHT22;15737;49.760;6.632;2023-11-21T14:18:27;14.80;99.90
28530;DHT22;15737;49.760;6.632;2023-11-21T14:20:58;14.50;99.90
28530;DHT22;15737;49.760;6.632;2023-11-21T14:23:23;14.10;99.90
28530;DHT22;15737;49.760;6.632;2023-11-21T14:25:49;14.20;99.90
28530;DHT22;15737;49.760;6.632;2023-11-21T14:28:18;14.10;99.90
28530;DHT22;15737;49.760;6.632;2023-11-21T14:30:45;14.00;99.90
28530;DHT22;15737;49.760;6.632;2023-11-21T14:33:11;14.00;99.90
28530;DHT22;15737;49.760;6.632;2023-11-21T14:35:37;14.00;99.90
28530;DHT22;15737;49.760;6.632;2023-11-21T14:38:03;13.90;99.90
28530;DHT22;15737;49.760;6.632;2023-11-21T14:40:31;13.90;99.90
28530;DHT22;15737;49.760;6.632;2023-11-21T14:43:02;13.80;99.90
28530;DHT22;15737;49.760;6.632;2023-11-21T14:45:34;13.60;99.90
28530;DHT22;15737;49.760;6.632;2023-11-21T14:48:00;13.60;99.90
28530;DHT22;15737;49.760;6.632;2023-11-21T14:50:34;13.90;99.90
28530;DHT22;15737;49.760;6.632;2023-11-21T14:53:18;14.20;99.90
28530;DHT22;15737;49.760;6.632;2023-11-21T14:56:07;14.10;99.90
28530;DHT22;15737;49.760;6.632;2023-11-21T14:58:33;13.70;99.90
28530;DHT22;15737;49.760;6.632;2023-11-21T15:00:59;13.40;99.90
28530;DHT22;15737;49.760;6.632;2023-11-21T15:03:26;13.00;99.90
28530;DHT22;15737;49.760;6.632;2023-11-21T15:05:58;12.70;99.90
28530;DHT22;15737;49.760;6.632;2023-11-21T15:08:25;12.40;99.90
28530;DHT22;15737;49.760;6.632;2023-11-21T15:10:57;12.10;99.90
28530;DHT22;15737;49.760;6.632;2023-11-21T15:13:23;11.90;99.90
28530;DHT22;15737;49.760;6.632;2023-11-21T15:15:51;11.70;99.90
28530;DHT22;15737;49.760;6.632;2023-11-21T15:18:19;11.60;99.90
28530;DHT22;15737;49.760;6.632;2023-11-21T15:20:45;11.50;99.90
28530;DHT22;15737;49.760;6.632;2023-11-21T15:23:11;11.60;99.90
28530;DHT22;15737;49.760;6.632;2023-11-21T15:25:38;11.60;99.90
28530;DHT22;15737;49.760;6.632;2023-11-21T15:28:04;11.70;99.90
28530;DHT22;15737;49.760;6.632;2023-11-21T15:30:31;11.60;99.90
28530;DHT22;15737;49.760;6.632;2023-11-21T15:32:58;11.60;99.90
28530;DHT22;15737;49.760;6.632;2023-11-21T15:35:26;11.50;99.90
28530;DHT22;15737;49.760;6.632;2023-11-21T15:37:54;11.50;99.90
28530;DHT22;15737;49.760;6.632;2023-11-21T15:40:23;11.50;99.90
28530;DHT22;15737;49.760;6.632;2023-11-21T15:42:48;11.50;99.90
28530;DHT22;15737;49.760;6.632;2023-11-21T15:45:15;11.50;99.90
28530;DHT22;15737;49.760;6.632;2023-11-21T15:47:43;11.40;99.90
28530;DHT22;15737;49.760;6.632;2023-11-21T15:50:09;11.30;99.90
28530;DHT22;15737;49.760;6.632;2023-11-21T15:52:36;11.10;99.90
28530;DHT22;15737;49.760;6.632;2023-11-21T15:55:01;10.90;99.90
28530;DHT22;15737;49.760;6.632;2023-11-21T15:57:27;10.70;99.90
28530;DHT22;15737;49.760;6.632;2023-11-21T15:59:52;10.60;99.90
28530;DHT22;15737;49.760;6.632;2023-11-21T16:02:19;10.60;99.90
28530;DHT22;15737;49.760;6.632;2023-11-21T16:04:44;10.70;99.90
28530;DHT22;15737;49.760;6.632;2023-11-21T16:07:10;10.80;99.90
28530;DHT22;15737;49.760;6.632;2023-11-21T16:09:36;10.80;99.90
28530;DHT22;15737;49.760;6.632;2023-11-21T16:12:04;10.80;99.90
28530;DHT22;15737;49.760;6.632;2023-11-21T16:14:32;10.60;99.90
28530;DHT22;15737;49.760;6.632;2023-11-21T16:17:02;10.40;99.90
28530;DHT22;15737;49.760;6.632;2023-11-21T16:19:28;10.30;99.90
28530;DHT22;15737;49.760;6.632;2023-11-21T16:21:54;10.30;99.90